Time,TemperatureF,DewpointF,PressureIn,WindDirection,WindDirectionDegrees,WindSpeedMPH,WindSpeedGustMPH,Humidity,HourlyPrecipIn,Conditions,Clouds,dailyrainin,SoftwareType,DateUTC
2013-07-01 00:00:00,56.7,52.9,29.79,ESE,112,1.0,6.0,87,0.00,,,0.00,LWC V2.00 B2112,2013-07-01 07:00:00,
2013-07-01 00:10:00,56.5,52.7,29.79,East,90,1.0,6.0,87,0.00,,,0.00,LWC V2.00 B2112,2013-07-01 07:10:00,
2013-07-01 00:20:00,56.5,52.7,29.79,East,90,1.0,6.0,87,0.00,,,0.00,LWC V2.00 B2112,2013-07-01 07:20:00,
2013-07-01 00:30:00,56.5,52.7,29.79,East,90,1.0,6.0,87,0.00,,,0.00,LWC V2.00 B2112,2013-07-01 07:30:00,
2013-07-01 00:40:00,56.2,52.4,29.78,SE,135,0.0,3.0,87,0.00,,,0.00,LWC V2.00 B2112,2013-07-01 07:40:00,
2013-07-01 00:50:00,56.2,52.4,29.78,SE,135,0.0,3.0,87,0.00,,,0.00,LWC V2.00 B2112,2013-07-01 07:50:00,
2013-07-01 01:00:00,56.2,52.4,29.78,SE,135,0.0,3.0,87,0.00,,,0.00,LWC V2.00 B2112,2013-07-01 08:00:00,
2013-07-01 01:10:00,55.5,51.7,29.78,North,0,0.0,0.0,87,0.00,,,0.00,LWC V2.00 B2112,2013-07-01 08:10:00,
2013-07-01 01:20:00,55.5,51.7,29.78,North,0,0.0,0.0,87,0.00,,,0.00,LWC V2.00 B2112,2013-07-01 08:20:00,
2013-07-01 01:30:00,55.5,51.7,29.78,North,0,0.0,0.0,87,0.00,,,0.00,LWC V2.00 B2112,2013-07-01 08:30:00,
2013-07-01 01:40:00,54.9,51.1,29.79,North,0,0.0,0.0,87,0.00,,,0.00,LWC V2.00 B2112,2013-07-01 08:40:00,
2013-07-01 01:50:00,54.9,51.1,29.79,North,0,0.0,0.0,87,0.00,,,0.00,LWC V2.00 B2112,2013-07-01 08:50:00,
2013-07-01 02:00:00,54.9,51.1,29.79,North,0,0.0,0.0,87,0.00,,,0.00,LWC V2.00 B2112,2013-07-01 09:00:00,
2013-07-01 02:10:00,53.4,49.6,29.78,ESE,112,0.0,2.0,87,0.00,,,0.00,LWC V2.00 B2112,2013-07-01 09:10:00,
2013-07-01 02:20:00,53.4,49.6,29.78,ESE,112,0.0,2.0,87,0.00,,,0.00,LWC V2.00 B2112,2013-07-01 09:20:00,
2013-07-01 02:30:00,53.4,49.6,29.78,ESE,112,0.0,2.0,87,0.00,,,0.00,LWC V2.00 B2112,2013-07-01 09:30:00,
2013-07-01 02:40:00,53.2,49.7,29.78,NW,315,0.0,1.0,88,0.00,,,0.00,LWC V2.00 B2112,2013-07-01 09:40:00,
2013-07-01 02:50:00,53.2,49.7,29.78,NW,315,0.0,1.0,88,0.00,,,0.00,LWC V2.00 B2112,2013-07-01 09:50:00,
2013-07-01 03:00:00,53.2,49.7,29.78,NW,315,0.0,1.0,88,0.00,,,0.00,LWC V2.00 B2112,2013-07-01 10:00:00,
2013-07-01 03:10:00,53.6,50.1,29.79,NNW,338,0.0,1.0,88,0.00,,,0.00,LWC V2.00 B2112,2013-07-01 10:10:00,
2013-07-01 03:20:00,53.6,50.1,29.79,NNW,338,0.0,1.0,88,0.00,,,0.00,LWC V2.00 B2112,2013-07-01 10:20:00,
2013-07-01 03:30:00,53.6,50.1,29.79,NNW,338,0.0,1.0,88,0.00,,,0.00,LWC V2.00 B2112,2013-07-01 10:30:00,
2013-07-01 03:40:00,53.5,50.0,29.80,North,0,0.0,0.0,88,0.00,,,0.00,LWC V2.00 B2112,2013-07-01 10:40:00,
2013-07-01 03:50:00,53.5,50.0,29.80,North,0,0.0,0.0,88,0.00,,,0.00,LWC V2.00 B2112,2013-07-01 10:50:00,
2013-07-01 04:00:00,53.5,50.0,29.80,North,0,0.0,0.0,88,0.00,,,0.00,LWC V2.00 B2112,2013-07-01 11:00:00,
2013-07-01 04:10:00,53.0,49.5,29.79,North,0,0.0,0.0,88,0.00,,,0.00,LWC V2.00 B2112,2013-07-01 11:10:00,
2013-07-01 04:20:00,53.0,49.5,29.79,North,0,0.0,0.0,88,0.00,,,0.00,LWC V2.00 B2112,2013-07-01 11:20:00,
2013-07-01 04:30:00,53.0,49.5,29.79,North,0,0.0,0.0,88,0.00,,,0.00,LWC V2.00 B2112,2013-07-01 11:30:00,
2013-07-01 04:40:00,52.2,48.8,29.79,North,0,0.0,0.0,88,0.00,,,0.00,LWC V2.00 B2112,2013-07-01 11:40:00,
2013-07-01 04:50:00,52.2,48.8,29.79,North,0,0.0,0.0,88,0.00,,,0.00,LWC V2.00 B2112,2013-07-01 11:50:00,
2013-07-01 05:00:00,52.2,48.8,29.79,North,0,0.0,0.0,88,0.00,,,0.00,LWC V2.00 B2112,2013-07-01 12:00:00,
2013-07-01 05:10:00,51.5,48.1,29.79,North,0,0.0,0.0,88,0.00,,,0.00,LWC V2.00 B2112,2013-07-01 12:10:00,
2013-07-01 05:20:00,51.5,48.1,29.79,North,0,0.0,0.0,88,0.00,,,0.00,LWC V2.00 B2112,2013-07-01 12:20:00,
2013-07-01 05:30:00,51.5,48.1,29.79,North,0,0.0,0.0,88,0.00,,,0.00,LWC V2.00 B2112,2013-07-01 12:30:00,
2013-07-01 05:40:00,50.8,47.4,29.79,North,0,0.0,0.0,88,0.00,,,0.00,LWC V2.00 B2112,2013-07-01 12:40:00,
2013-07-01 05:50:00,50.8,47.4,29.79,North,0,0.0,0.0,88,0.00,,,0.00,LWC V2.00 B2112,2013-07-01 12:50:00,
2013-07-01 06:00:00,50.8,47.4,29.79,North,0,0.0,0.0,88,0.00,,,0.00,LWC V2.00 B2112,2013-07-01 13:00:00,
2013-07-01 06:10:00,50.5,47.1,29.79,North,0,0.0,0.0,88,0.00,,,0.00,LWC V2.00 B2112,2013-07-01 13:10:00,
2013-07-01 06:28:00,50.1,46.7,29.79,East,81,0.0,0.0,88,0.00,,,0.00,LWC V2.00 B2112,2013-07-01 13:28:00,
2013-07-01 06:33:00,50.1,46.7,29.79,East,80,0.0,0.0,88,0.00,,,0.00,LWC V2.00 B2112,2013-07-01 13:33:00,
2013-07-01 06:38:00,50.1,46.7,29.79,East,81,0.0,0.0,88,0.00,,,0.00,LWC V2.00 B2112,2013-07-01 13:38:00,
2013-07-01 06:43:00,50.2,46.8,29.79,East,81,0.0,0.0,88,0.00,,,0.00,LWC V2.00 B2112,2013-07-01 13:43:00,
2013-07-01 06:48:00,50.3,46.9,29.79,East,81,0.0,0.0,88,0.00,,,0.00,LWC V2.00 B2112,2013-07-01 13:48:00,
2013-07-01 06:53:00,50.4,47.0,29.79,East,81,0.0,0.0,88,0.00,,,0.00,LWC V2.00 B2112,2013-07-01 13:53:00,
2013-07-01 06:58:00,50.6,47.2,29.79,East,81,0.0,0.0,88,0.00,,,0.00,LWC V2.00 B2112,2013-07-01 13:58:00,
2013-07-01 07:03:00,51.0,47.6,29.79,East,81,0.0,0.0,88,0.00,,,0.00,LWC V2.00 B2112,2013-07-01 14:03:00,
2013-07-01 07:08:00,51.7,48.3,29.78,East,81,0.0,0.0,88,0.00,,,0.00,LWC V2.00 B2112,2013-07-01 14:08:00,
2013-07-01 07:13:00,53.0,49.5,29.79,East,81,0.0,0.0,88,0.00,,,0.00,LWC V2.00 B2112,2013-07-01 14:13:00,
2013-07-01 07:18:00,53.9,50.4,29.79,SE,129,0.0,0.0,88,0.00,,,0.00,LWC V2.00 B2112,2013-07-01 14:18:00,
2013-07-01 07:23:00,54.6,51.1,29.79,ENE,75,1.0,2.0,88,0.00,,,0.00,LWC V2.00 B2112,2013-07-01 14:23:00,
2013-07-01 07:28:00,55.2,51.7,29.79,ENE,75,1.0,1.0,88,0.00,,,0.00,LWC V2.00 B2112,2013-07-01 14:28:00,
2013-07-01 07:33:00,55.6,52.1,29.78,ESE,102,0.0,3.0,88,0.00,,,0.00,LWC V2.00 B2112,2013-07-01 14:33:00,
2013-07-01 07:38:00,56.1,52.6,29.79,ENE,58,3.0,3.0,88,0.00,,,0.00,LWC V2.00 B2112,2013-07-01 14:38:00,
2013-07-01 07:43:00,56.5,52.7,29.79,ENE,77,2.0,3.0,87,0.00,,,0.00,LWC V2.00 B2112,2013-07-01 14:43:00,
2013-07-01 07:48:00,56.9,53.1,29.79,ENE,63,0.0,2.0,87,0.00,,,0.00,LWC V2.00 B2112,2013-07-01 14:48:00,
2013-07-01 07:53:00,57.7,53.9,29.78,ENE,69,2.0,2.0,87,0.00,,,0.00,LWC V2.00 B2112,2013-07-01 14:53:00,
2013-07-01 07:58:00,58.4,54.5,29.78,SE,130,1.0,3.0,87,0.00,,,0.00,LWC V2.00 B2112,2013-07-01 14:58:00,
2013-07-01 08:03:00,58.9,55.0,29.79,ENE,64,2.0,3.0,87,0.00,,,0.00,LWC V2.00 B2112,2013-07-01 15:03:00,
2013-07-01 08:08:00,59.2,55.0,29.79,ESE,117,2.0,3.0,86,0.00,,,0.00,LWC V2.00 B2112,2013-07-01 15:08:00,
2013-07-01 08:13:00,59.6,55.4,29.79,SE,130,1.0,2.0,86,0.00,,,0.00,LWC V2.00 B2112,2013-07-01 15:13:00,
2013-07-01 08:18:00,60.1,55.6,29.78,ENE,74,2.0,3.0,85,0.00,,,0.00,LWC V2.00 B2112,2013-07-01 15:18:00,
2013-07-01 08:23:00,60.8,56.3,29.79,ESE,104,0.0,3.0,85,0.00,,,0.00,LWC V2.00 B2112,2013-07-01 15:23:00,
2013-07-01 08:28:00,61.4,56.5,29.79,ESE,117,2.0,3.0,84,0.00,,,0.00,LWC V2.00 B2112,2013-07-01 15:28:00,
2013-07-01 08:33:00,62.0,56.8,29.79,ESE,120,1.0,2.0,83,0.00,,,0.00,LWC V2.00 B2112,2013-07-01 15:33:00,
2013-07-01 08:38:00,62.7,57.1,29.79,ENE,68,2.0,3.0,82,0.00,,,0.00,LWC V2.00 B2112,2013-07-01 15:38:00,
2013-07-01 08:43:00,63.2,57.6,29.79,ENE,64,0.0,4.0,82,0.00,,,0.00,LWC V2.00 B2112,2013-07-01 15:43:00,
2013-07-01 08:48:00,63.7,57.8,29.78,ENE,75,1.0,2.0,81,0.00,,,0.00,LWC V2.00 B2112,2013-07-01 15:48:00,
2013-07-01 08:53:00,64.2,57.9,29.78,East,81,1.0,3.0,80,0.00,,,0.00,LWC V2.00 B2112,2013-07-01 15:53:00,
2013-07-01 08:58:00,64.8,58.5,29.78,East,89,0.0,2.0,80,0.00,,,0.00,LWC V2.00 B2112,2013-07-01 15:58:00,
2013-07-01 09:03:00,66.0,59.3,29.78,ESE,105,2.0,2.0,79,0.00,,,0.00,LWC V2.00 B2112,2013-07-01 16:03:00,
2013-07-01 09:08:00,66.6,59.2,29.78,NE,53,2.0,3.0,77,0.00,,,0.00,LWC V2.00 B2112,2013-07-01 16:08:00,
2013-07-01 09:13:00,67.3,59.8,29.78,ENE,69,0.0,4.0,77,0.00,,,0.00,LWC V2.00 B2112,2013-07-01 16:13:00,
2013-07-01 09:18:00,67.9,60.0,29.78,ESE,105,0.0,2.0,76,0.00,,,0.00,LWC V2.00 B2112,2013-07-01 16:18:00,
2013-07-01 09:23:00,68.9,60.6,29.78,ENE,78,0.0,2.0,75,0.00,,,0.00,LWC V2.00 B2112,2013-07-01 16:23:00,
2013-07-01 09:28:00,69.9,60.8,29.78,ENE,67,0.0,2.0,73,0.00,,,0.00,LWC V2.00 B2112,2013-07-01 16:28:00,
2013-07-01 09:33:00,70.9,61.8,29.78,ENE,77,0.0,0.0,73,0.00,,,0.00,LWC V2.00 B2112,2013-07-01 16:33:00,
2013-07-01 09:38:00,72.0,62.1,29.78,SE,124,0.0,0.0,71,0.00,,,0.00,LWC V2.00 B2112,2013-07-01 16:38:00,
2013-07-01 09:43:00,72.6,62.6,29.78,North,359,0.0,0.0,71,0.00,,,0.00,LWC V2.00 B2112,2013-07-01 16:43:00,
2013-07-01 09:48:00,73.9,64.3,29.78,NNE,23,0.0,0.0,72,0.00,,,0.00,LWC V2.00 B2112,2013-07-01 16:48:00,
2013-07-01 09:53:00,75.6,65.1,29.78,NNE,23,0.0,0.0,70,0.00,,,0.00,LWC V2.00 B2112,2013-07-01 16:53:00,
2013-07-01 09:58:00,76.9,65.5,29.78,NNE,23,0.0,0.0,68,0.00,,,0.00,LWC V2.00 B2112,2013-07-01 16:58:00,
2013-07-01 10:03:00,77.5,64.8,29.78,ENE,70,0.0,0.0,65,0.00,,,0.00,LWC V2.00 B2112,2013-07-01 17:03:00,
2013-07-01 10:09:00,77.4,64.7,29.78,ENE,70,0.0,0.0,65,0.00,,,0.00,LWC V2.00 B2112,2013-07-01 17:09:00,
2013-07-01 10:14:00,78.2,64.6,29.78,ESE,114,0.0,1.0,63,0.00,,,0.00,LWC V2.00 B2112,2013-07-01 17:14:00,
2013-07-01 10:19:00,79.3,63.7,29.78,NW,305,0.0,0.0,59,0.00,,,0.00,LWC V2.00 B2112,2013-07-01 17:19:00,
2013-07-01 10:24:00,80.1,64.0,29.78,ESE,115,0.0,0.0,58,0.00,,,0.00,LWC V2.00 B2112,2013-07-01 17:24:00,
2013-07-01 10:29:00,81.0,64.8,29.78,NNW,342,0.0,0.0,58,0.00,,,0.00,LWC V2.00 B2112,2013-07-01 17:29:00,
2013-07-01 10:34:00,81.7,65.0,29.79,SW,231,2.0,2.0,57,0.00,,,0.00,LWC V2.00 B2112,2013-07-01 17:34:00,
2013-07-01 10:39:00,81.0,64.3,29.79,WSW,243,1.0,2.0,57,0.00,,,0.00,LWC V2.00 B2112,2013-07-01 17:39:00,
2013-07-01 10:44:00,80.2,65.0,29.79,WSW,257,2.0,2.0,60,0.00,,,0.00,LWC V2.00 B2112,2013-07-01 17:44:00,
2013-07-01 10:49:00,80.0,65.3,29.79,ENE,63,0.0,0.0,61,0.00,,,0.00,LWC V2.00 B2112,2013-07-01 17:49:00,
2013-07-01 10:54:00,79.0,65.3,29.79,East,89,1.0,2.0,63,0.00,,,0.00,LWC V2.00 B2112,2013-07-01 17:54:00,
2013-07-01 10:59:00,78.7,64.6,29.79,SE,136,1.0,2.0,62,0.00,,,0.00,LWC V2.00 B2112,2013-07-01 17:59:00,
2013-07-01 11:04:00,79.4,64.8,29.79,ESE,103,1.0,1.0,61,0.00,,,0.00,LWC V2.00 B2112,2013-07-01 18:04:00,
2013-07-01 11:09:00,79.0,63.9,29.79,East,99,2.0,3.0,60,0.00,,,0.00,LWC V2.00 B2112,2013-07-01 18:09:00,
2013-07-01 11:14:00,77.9,63.8,29.79,East,87,2.0,5.0,62,0.00,,,0.00,LWC V2.00 B2112,2013-07-01 18:14:00,
2013-07-01 11:19:00,77.4,63.3,29.79,ESE,108,3.0,4.0,62,0.00,,,0.00,LWC V2.00 B2112,2013-07-01 18:19:00,
2013-07-01 11:24:00,76.2,63.1,29.80,ESE,121,5.0,5.0,64,0.00,,,0.00,LWC V2.00 B2112,2013-07-01 18:24:00,
2013-07-01 11:29:00,75.3,62.7,29.80,ESE,116,2.0,6.0,65,0.00,,,0.00,LWC V2.00 B2112,2013-07-01 18:29:00,
2013-07-01 11:34:00,75.2,63.0,29.80,NNE,30,3.0,5.0,66,0.00,,,0.00,LWC V2.00 B2112,2013-07-01 18:34:00,
2013-07-01 11:39:00,74.7,62.1,29.80,SW,225,1.0,4.0,65,0.00,,,0.00,LWC V2.00 B2112,2013-07-01 18:39:00,
2013-07-01 11:44:00,75.0,62.0,29.80,SSW,205,2.0,3.0,64,0.00,,,0.00,LWC V2.00 B2112,2013-07-01 18:44:00,
2013-07-01 11:49:00,75.2,62.2,29.81,South,187,5.0,5.0,64,0.00,,,0.00,LWC V2.00 B2112,2013-07-01 18:49:00,
2013-07-01 11:54:00,75.4,62.4,29.80,SW,214,1.0,3.0,64,0.00,,,0.00,LWC V2.00 B2112,2013-07-01 18:54:00,
2013-07-01 11:59:00,75.4,61.5,29.81,WSW,245,1.0,4.0,62,0.00,,,0.00,LWC V2.00 B2112,2013-07-01 18:59:00,
2013-07-01 12:04:00,75.7,61.7,29.81,SW,229,3.0,4.0,62,0.00,,,0.00,LWC V2.00 B2112,2013-07-01 19:04:00,
2013-07-01 12:09:00,75.2,61.3,29.81,SSE,158,2.0,5.0,62,0.00,,,0.00,LWC V2.00 B2112,2013-07-01 19:09:00,
2013-07-01 12:14:00,75.4,61.9,29.81,SW,233,2.0,2.0,63,0.00,,,0.00,LWC V2.00 B2112,2013-07-01 19:14:00,
2013-07-01 12:19:00,76.2,61.7,29.81,ESE,103,2.0,2.0,61,0.00,,,0.00,LWC V2.00 B2112,2013-07-01 19:19:00,
2013-07-01 12:24:00,76.0,62.5,29.81,East,86,0.0,0.0,63,0.00,,,0.00,LWC V2.00 B2112,2013-07-01 19:24:00,
2013-07-01 12:29:00,76.3,61.8,29.81,West,267,1.0,2.0,61,0.00,,,0.00,LWC V2.00 B2112,2013-07-01 19:29:00,
2013-07-01 12:34:00,76.8,60.9,29.81,ESE,111,2.0,4.0,58,0.00,,,0.00,LWC V2.00 B2112,2013-07-01 19:34:00,
2013-07-01 12:39:00,76.8,61.4,29.81,SSW,209,3.0,4.0,59,0.00,,,0.00,LWC V2.00 B2112,2013-07-01 19:39:00,
2013-07-01 12:44:00,76.8,61.4,29.81,ESE,108,1.0,5.0,59,0.00,,,0.00,LWC V2.00 B2112,2013-07-01 19:44:00,
2013-07-01 12:49:00,76.4,62.4,29.81,ESE,114,2.0,2.0,62,0.00,,,0.00,LWC V2.00 B2112,2013-07-01 19:49:00,
2013-07-01 12:54:00,76.3,62.3,29.81,West,281,0.0,3.0,62,0.00,,,0.00,LWC V2.00 B2112,2013-07-01 19:54:00,
2013-07-01 12:59:00,76.9,62.9,29.81,WSW,241,1.0,3.0,62,0.00,,,0.00,LWC V2.00 B2112,2013-07-01 19:59:00,
2013-07-01 13:04:00,77.2,62.7,29.82,East,80,1.0,5.0,61,0.00,,,0.00,LWC V2.00 B2112,2013-07-01 20:04:00,
2013-07-01 13:09:00,77.0,62.0,29.82,ESE,122,1.0,5.0,60,0.00,,,0.00,LWC V2.00 B2112,2013-07-01 20:09:00,
2013-07-01 13:14:00,76.5,62.5,29.81,SSE,165,0.0,3.0,62,0.00,,,0.00,LWC V2.00 B2112,2013-07-01 20:14:00,
2013-07-01 13:19:00,76.8,63.2,29.81,SSE,164,1.0,3.0,63,0.00,,,0.00,LWC V2.00 B2112,2013-07-01 20:19:00,
2013-07-01 13:24:00,76.5,62.5,29.81,East,101,5.0,6.0,62,0.00,,,0.00,LWC V2.00 B2112,2013-07-01 20:24:00,
2013-07-01 13:29:00,75.2,61.7,29.82,WSW,251,2.0,3.0,63,0.00,,,0.00,LWC V2.00 B2112,2013-07-01 20:29:00,
2013-07-01 13:34:00,74.7,61.7,29.82,East,97,2.0,6.0,64,0.00,,,0.00,LWC V2.00 B2112,2013-07-01 20:34:00,
2013-07-01 13:39:00,73.8,61.3,29.82,SE,131,3.0,5.0,65,0.00,,,0.00,LWC V2.00 B2112,2013-07-01 20:39:00,
2013-07-01 13:44:00,72.8,61.2,29.82,East,80,1.0,4.0,67,0.00,,,0.00,LWC V2.00 B2112,2013-07-01 20:44:00,
2013-07-01 13:49:00,72.5,61.3,29.82,SE,129,1.0,6.0,68,0.00,,,0.00,LWC V2.00 B2112,2013-07-01 20:49:00,
2013-07-01 13:54:00,72.4,61.2,29.82,East,96,3.0,4.0,68,0.00,,,0.00,LWC V2.00 B2112,2013-07-01 20:54:00,
2013-07-01 13:59:00,71.9,60.8,29.82,ESE,106,3.0,4.0,68,0.00,,,0.00,LWC V2.00 B2112,2013-07-01 20:59:00,
2013-07-01 14:04:00,71.6,60.9,29.82,SE,136,2.0,4.0,69,0.00,,,0.00,LWC V2.00 B2112,2013-07-01 21:04:00,
2013-07-01 14:09:00,71.8,61.5,29.82,WSW,246,5.0,5.0,70,0.00,,,0.00,LWC V2.00 B2112,2013-07-01 21:09:00,
2013-07-01 14:14:00,72.6,61.4,29.82,East,101,5.0,5.0,68,0.00,,,0.00,LWC V2.00 B2112,2013-07-01 21:14:00,
2013-07-01 14:19:00,72.8,61.6,29.81,East,94,4.0,4.0,68,0.00,,,0.00,LWC V2.00 B2112,2013-07-01 21:19:00,
2013-07-01 14:24:00,72.4,61.2,29.82,East,84,2.0,4.0,68,0.00,,,0.00,LWC V2.00 B2112,2013-07-01 21:24:00,
2013-07-01 14:29:00,71.6,60.5,29.82,WSW,252,1.0,5.0,68,0.00,,,0.00,LWC V2.00 B2112,2013-07-01 21:29:00,
2013-07-01 14:34:00,70.8,60.1,29.82,WNW,288,1.0,4.0,69,0.00,,,0.00,LWC V2.00 B2112,2013-07-01 21:34:00,
2013-07-01 14:39:00,70.7,59.2,29.82,SSE,153,0.0,2.0,67,0.00,,,0.00,LWC V2.00 B2112,2013-07-01 21:39:00,
2013-07-01 14:44:00,70.6,59.1,29.82,SSE,152,3.0,5.0,67,0.00,,,0.00,LWC V2.00 B2112,2013-07-01 21:44:00,
2013-07-01 14:49:00,70.6,59.5,29.82,ESE,112,1.0,4.0,68,0.00,,,0.00,LWC V2.00 B2112,2013-07-01 21:49:00,
2013-07-01 14:54:00,69.9,59.7,29.82,SW,215,2.0,4.0,70,0.00,,,0.00,LWC V2.00 B2112,2013-07-01 21:54:00,
2013-07-01 14:59:00,69.9,59.3,29.82,SSW,195,1.0,5.0,69,0.00,,,0.00,LWC V2.00 B2112,2013-07-01 21:59:00,
2013-07-01 15:04:00,70.1,59.4,29.82,East,98,1.0,4.0,69,0.00,,,0.00,LWC V2.00 B2112,2013-07-01 22:04:00,
2013-07-01 15:09:00,70.1,59.8,29.82,ESE,113,0.0,3.0,70,0.00,,,0.00,LWC V2.00 B2112,2013-07-01 22:09:00,
2013-07-01 15:14:00,70.1,59.0,29.83,West,260,2.0,4.0,68,0.00,,,0.00,LWC V2.00 B2112,2013-07-01 22:14:00,
2013-07-01 15:19:00,69.2,58.6,29.83,SW,225,2.0,6.0,69,0.00,,,0.00,LWC V2.00 B2112,2013-07-01 22:19:00,
2013-07-01 15:24:00,68.1,57.9,29.83,ESE,113,3.0,4.0,70,0.00,,,0.00,LWC V2.00 B2112,2013-07-01 22:24:00,
2013-07-01 15:29:00,67.2,57.5,29.82,East,99,3.0,6.0,71,0.00,,,0.00,LWC V2.00 B2112,2013-07-01 22:29:00,
2013-07-01 15:34:00,67.2,57.9,29.82,SE,125,1.0,4.0,72,0.00,,,0.00,LWC V2.00 B2112,2013-07-01 22:34:00,
2013-07-01 15:39:00,67.6,57.9,29.82,SW,231,2.0,4.0,71,0.00,,,0.00,LWC V2.00 B2112,2013-07-01 22:39:00,
2013-07-01 15:44:00,67.9,58.1,29.82,South,190,2.0,5.0,71,0.00,,,0.00,LWC V2.00 B2112,2013-07-01 22:44:00,
2013-07-01 15:49:00,67.8,58.0,29.82,SW,233,0.0,1.0,71,0.00,,,0.00,LWC V2.00 B2112,2013-07-01 22:49:00,
2013-07-01 15:54:00,67.8,58.0,29.82,East,94,3.0,4.0,71,0.00,,,0.00,LWC V2.00 B2112,2013-07-01 22:54:00,
2013-07-01 15:59:00,66.6,57.7,29.82,SSW,211,2.0,6.0,73,0.00,,,0.00,LWC V2.00 B2112,2013-07-01 22:59:00,
2013-07-01 16:04:00,65.9,57.4,29.82,WSW,248,2.0,6.0,74,0.00,,,0.00,LWC V2.00 B2112,2013-07-01 23:04:00,
2013-07-01 16:09:00,65.5,57.0,29.82,SE,128,2.0,4.0,74,0.00,,,0.00,LWC V2.00 B2112,2013-07-01 23:09:00,
2013-07-01 16:14:00,65.2,57.1,29.82,East,91,2.0,5.0,75,0.00,,,0.00,LWC V2.00 B2112,2013-07-01 23:14:00,
2013-07-01 16:19:00,65.3,57.5,29.82,SSW,198,1.0,3.0,76,0.00,,,0.00,LWC V2.00 B2112,2013-07-01 23:19:00,
2013-07-01 16:24:00,65.6,57.5,29.82,East,91,0.0,3.0,75,0.00,,,0.00,LWC V2.00 B2112,2013-07-01 23:24:00,
2013-07-01 16:29:00,65.8,57.6,29.82,ENE,74,2.0,6.0,75,0.00,,,0.00,LWC V2.00 B2112,2013-07-01 23:29:00,
2013-07-01 16:34:00,65.1,57.0,29.82,ENE,64,1.0,2.0,75,0.00,,,0.00,LWC V2.00 B2112,2013-07-01 23:34:00,
2013-07-01 16:39:00,65.2,57.4,29.82,ESE,120,1.0,3.0,76,0.00,,,0.00,LWC V2.00 B2112,2013-07-01 23:39:00,
2013-07-01 16:44:00,65.7,57.9,29.82,WNW,286,2.0,2.0,76,0.00,,,0.00,LWC V2.00 B2112,2013-07-01 23:44:00,
2013-07-01 16:49:00,65.5,57.4,29.82,SSE,167,2.0,4.0,75,0.00,,,0.00,LWC V2.00 B2112,2013-07-01 23:49:00,
2013-07-01 16:54:00,65.5,57.4,29.82,South,184,1.0,3.0,75,0.00,,,0.00,LWC V2.00 B2112,2013-07-01 23:54:00,
2013-07-01 16:59:00,65.0,56.9,29.82,SSW,197,2.0,6.0,75,0.00,,,0.00,LWC V2.00 B2112,2013-07-01 23:59:00,
2013-07-01 17:04:00,64.4,57.0,29.82,WSW,240,0.0,3.0,77,0.00,,,0.00,LWC V2.00 B2112,2013-07-02 00:04:00,
2013-07-01 17:09:00,64.3,57.3,29.81,East,98,3.0,3.0,78,0.00,,,0.00,LWC V2.00 B2112,2013-07-02 00:09:00,
2013-07-01 17:14:00,64.1,57.1,29.81,ESE,110,2.0,5.0,78,0.00,,,0.00,LWC V2.00 B2112,2013-07-02 00:14:00,
2013-07-01 17:19:00,63.8,56.8,29.81,ESE,113,3.0,5.0,78,0.00,,,0.00,LWC V2.00 B2112,2013-07-02 00:19:00,
2013-07-01 17:24:00,63.2,56.6,29.81,ESE,119,3.0,4.0,79,0.00,,,0.00,LWC V2.00 B2112,2013-07-02 00:24:00,
2013-07-01 17:29:00,63.6,57.0,29.81,NW,304,0.0,1.0,79,0.00,,,0.00,LWC V2.00 B2112,2013-07-02 00:29:00,
2013-07-01 17:34:00,63.4,56.8,29.81,ENE,58,2.0,5.0,79,0.00,,,0.00,LWC V2.00 B2112,2013-07-02 00:34:00,
2013-07-01 17:39:00,63.3,56.7,29.81,East,101,0.0,1.0,79,0.00,,,0.00,LWC V2.00 B2112,2013-07-02 00:39:00,
2013-07-01 17:44:00,63.0,56.4,29.82,East,86,1.0,3.0,79,0.00,,,0.00,LWC V2.00 B2112,2013-07-02 00:44:00,
2013-07-01 17:49:00,62.9,56.3,29.81,WSW,257,5.0,5.0,79,0.00,,,0.00,LWC V2.00 B2112,2013-07-02 00:49:00,
2013-07-01 17:54:00,62.7,56.1,29.81,NE,43,1.0,2.0,79,0.00,,,0.00,LWC V2.00 B2112,2013-07-02 00:54:00,
2013-07-01 17:59:00,62.8,56.5,29.81,East,96,0.0,0.0,80,0.00,,,0.00,LWC V2.00 B2112,2013-07-02 00:59:00,
2013-07-01 18:04:00,62.2,55.9,29.81,SSW,195,1.0,2.0,80,0.00,,,0.00,LWC V2.00 B2112,2013-07-02 01:04:00,
2013-07-01 18:09:00,62.3,56.0,29.81,East,91,3.0,7.0,80,0.00,,,0.00,LWC V2.00 B2112,2013-07-02 01:09:00,
2013-07-01 18:14:00,62.3,56.4,29.81,SE,131,0.0,3.0,81,0.00,,,0.00,LWC V2.00 B2112,2013-07-02 01:14:00,
2013-07-01 18:19:00,62.2,55.9,29.81,SE,131,1.0,3.0,80,0.00,,,0.00,LWC V2.00 B2112,2013-07-02 01:19:00,
2013-07-01 18:24:00,62.1,55.9,29.81,ESE,106,1.0,3.0,80,0.00,,,0.00,LWC V2.00 B2112,2013-07-02 01:24:00,
2013-07-01 18:29:00,61.9,56.0,29.81,NE,49,2.0,2.0,81,0.00,,,0.00,LWC V2.00 B2112,2013-07-02 01:29:00,
2013-07-01 18:34:00,61.7,55.8,29.81,ESE,108,3.0,3.0,81,0.00,,,0.00,LWC V2.00 B2112,2013-07-02 01:34:00,
2013-07-01 18:39:00,61.6,55.7,29.81,ESE,102,2.0,5.0,81,0.00,,,0.00,LWC V2.00 B2112,2013-07-02 01:39:00,
2013-07-01 18:44:00,61.7,56.1,29.82,NNE,13,3.0,3.0,82,0.00,,,0.00,LWC V2.00 B2112,2013-07-02 01:44:00,
2013-07-01 18:49:00,61.8,55.9,29.81,ESE,112,1.0,2.0,81,0.00,,,0.00,LWC V2.00 B2112,2013-07-02 01:49:00,
2013-07-01 18:54:00,61.8,55.9,29.81,SE,124,1.0,3.0,81,0.00,,,0.00,LWC V2.00 B2112,2013-07-02 01:54:00,
2013-07-01 18:59:00,62.0,56.1,29.81,South,169,0.0,1.0,81,0.00,,,0.00,LWC V2.00 B2112,2013-07-02 01:59:00,
2013-07-01 19:04:00,62.2,55.9,29.81,NNW,333,1.0,4.0,80,0.00,,,0.00,LWC V2.00 B2112,2013-07-02 02:04:00,
2013-07-01 19:09:00,61.9,55.7,29.81,NNW,343,3.0,5.0,80,0.00,,,0.00,LWC V2.00 B2112,2013-07-02 02:09:00,
2013-07-01 19:14:00,61.3,55.4,29.80,SSE,162,0.0,1.0,81,0.00,,,0.00,LWC V2.00 B2112,2013-07-02 02:14:00,
2013-07-01 19:19:00,61.0,55.5,29.80,ENE,65,0.0,3.0,82,0.00,,,0.00,LWC V2.00 B2112,2013-07-02 02:19:00,
2013-07-01 19:24:00,60.8,55.3,29.81,West,271,0.0,2.0,82,0.00,,,0.00,LWC V2.00 B2112,2013-07-02 02:24:00,
2013-07-01 19:29:00,60.5,55.0,29.81,WSW,239,0.0,1.0,82,0.00,,,0.00,LWC V2.00 B2112,2013-07-02 02:29:00,
2013-07-01 19:34:00,60.3,54.8,29.81,SSW,203,0.0,0.0,82,0.00,,,0.00,LWC V2.00 B2112,2013-07-02 02:34:00,
2013-07-01 19:39:00,60.1,54.9,29.81,SW,222,0.0,0.0,83,0.00,,,0.00,LWC V2.00 B2112,2013-07-02 02:39:00,
2013-07-01 19:44:00,60.0,54.8,29.80,South,179,0.0,0.0,83,0.00,,,0.00,LWC V2.00 B2112,2013-07-02 02:44:00,
2013-07-01 19:49:00,59.9,54.7,29.80,NNE,30,0.0,0.0,83,0.00,,,0.00,LWC V2.00 B2112,2013-07-02 02:49:00,
2013-07-01 19:54:00,59.7,54.5,29.80,SSW,208,1.0,2.0,83,0.00,,,0.00,LWC V2.00 B2112,2013-07-02 02:54:00,
2013-07-01 19:59:00,59.5,54.7,29.80,NNW,341,0.0,1.0,84,0.00,,,0.00,LWC V2.00 B2112,2013-07-02 02:59:00,
2013-07-01 20:04:00,59.4,54.6,29.80,SSW,211,0.0,0.0,84,0.00,,,0.00,LWC V2.00 B2112,2013-07-02 03:04:00,
2013-07-01 20:09:00,59.3,54.5,29.80,South,181,1.0,1.0,84,0.00,,,0.00,LWC V2.00 B2112,2013-07-02 03:09:00,
2013-07-01 20:14:00,59.1,54.3,29.80,ESE,102,0.0,1.0,84,0.00,,,0.00,LWC V2.00 B2112,2013-07-02 03:14:00,
2013-07-01 20:19:00,58.9,54.1,29.80,East,92,0.0,1.0,84,0.00,,,0.00,LWC V2.00 B2112,2013-07-02 03:19:00,
2013-07-01 20:24:00,58.7,53.9,29.80,SE,142,0.0,0.0,84,0.00,,,0.00,LWC V2.00 B2112,2013-07-02 03:24:00,
2013-07-01 20:29:00,58.6,54.1,29.80,SE,141,0.0,0.0,85,0.00,,,0.00,LWC V2.00 B2112,2013-07-02 03:29:00,
2013-07-01 20:34:00,58.4,53.9,29.80,SE,141,0.0,0.0,85,0.00,,,0.00,LWC V2.00 B2112,2013-07-02 03:34:00,
2013-07-01 20:39:00,58.2,53.7,29.80,ESE,122,0.0,0.0,85,0.00,,,0.00,LWC V2.00 B2112,2013-07-02 03:39:00,
2013-07-01 20:44:00,58.0,53.5,29.81,ESE,120,0.0,0.0,85,0.00,,,0.00,LWC V2.00 B2112,2013-07-02 03:44:00,
2013-07-01 20:49:00,57.9,53.4,29.81,ESE,120,0.0,0.0,85,0.00,,,0.00,LWC V2.00 B2112,2013-07-02 03:49:00,
2013-07-01 20:54:00,57.7,53.2,29.80,SSW,210,0.0,0.0,85,0.00,,,0.00,LWC V2.00 B2112,2013-07-02 03:54:00,
2013-07-01 20:59:00,57.5,53.0,29.80,SSW,208,0.0,0.0,85,0.00,,,0.00,LWC V2.00 B2112,2013-07-02 03:59:00,
2013-07-01 21:01:00,57.5,53.0,29.80,SSW,207,0.0,0.0,85,0.00,,,0.00,LWC V2.00 B2112,2013-07-02 04:01:00,
2013-07-01 21:06:00,57.3,52.8,29.80,SSW,207,0.0,0.0,85,0.00,,,0.00,LWC V2.00 B2112,2013-07-02 04:06:00,
2013-07-01 21:11:00,57.1,52.6,29.80,SSW,207,0.0,0.0,85,0.00,,,0.00,LWC V2.00 B2112,2013-07-02 04:11:00,
2013-07-01 21:16:00,57.0,52.9,29.81,SSW,207,0.0,0.0,86,0.00,,,0.00,LWC V2.00 B2112,2013-07-02 04:16:00,
2013-07-01 21:21:00,56.9,52.8,29.81,SSW,208,0.0,0.0,86,0.00,,,0.00,LWC V2.00 B2112,2013-07-02 04:21:00,
2013-07-01 21:26:00,56.7,52.6,29.81,SSE,163,0.0,0.0,86,0.00,,,0.00,LWC V2.00 B2112,2013-07-02 04:26:00,
2013-07-01 21:31:00,56.6,52.5,29.81,SSE,165,0.0,0.0,86,0.00,,,0.00,LWC V2.00 B2112,2013-07-02 04:31:00,
2013-07-01 21:36:00,56.6,52.5,29.81,ESE,102,0.0,0.0,86,0.00,,,0.00,LWC V2.00 B2112,2013-07-02 04:36:00,
2013-07-01 21:41:00,56.4,52.3,29.81,NE,39,0.0,0.0,86,0.00,,,0.00,LWC V2.00 B2112,2013-07-02 04:41:00,
2013-07-01 21:46:00,56.3,52.2,29.81,East,81,0.0,0.0,86,0.00,,,0.00,LWC V2.00 B2112,2013-07-02 04:46:00,
2013-07-01 21:50:00,56.2,52.1,29.81,East,80,0.0,0.0,86,0.00,,,0.00,LWC V2.00 B2112,2013-07-02 04:50:00,
2013-07-01 21:51:00,56.2,52.1,29.81,East,81,0.0,0.0,86,0.00,,,0.00,LWC V2.00 B2112,2013-07-02 04:51:00,
2013-07-01 21:55:00,56.0,51.9,29.81,East,81,0.0,0.0,86,0.00,,,0.00,LWC V2.00 B2112,2013-07-02 04:55:00,
2013-07-01 22:00:00,56.0,51.9,29.82,East,84,0.0,0.0,86,0.00,,,0.00,LWC V2.00 B2112,2013-07-02 05:00:00,
2013-07-01 22:05:00,56.0,52.2,29.82,ESE,108,0.0,1.0,87,0.00,,,0.00,LWC V2.00 B2112,2013-07-02 05:05:00,
2013-07-01 22:10:00,55.9,52.1,29.82,ESE,107,0.0,0.0,87,0.00,,,0.00,LWC V2.00 B2112,2013-07-02 05:10:00,
2013-07-01 22:15:00,55.9,52.1,29.82,ESE,108,0.0,0.0,87,0.00,,,0.00,LWC V2.00 B2112,2013-07-02 05:15:00,
2013-07-01 22:20:00,55.8,52.0,29.82,ESE,107,0.0,0.0,87,0.00,,,0.00,LWC V2.00 B2112,2013-07-02 05:20:00,
2013-07-01 22:25:00,55.8,52.0,29.81,ESE,107,0.0,0.0,87,0.00,,,0.00,LWC V2.00 B2112,2013-07-02 05:25:00,
2013-07-01 22:30:00,55.8,52.0,29.81,ESE,107,0.0,1.0,87,0.00,,,0.00,LWC V2.00 B2112,2013-07-02 05:30:00,
2013-07-01 22:35:00,55.7,51.9,29.81,ESE,106,0.0,1.0,87,0.00,,,0.00,LWC V2.00 B2112,2013-07-02 05:35:00,
2013-07-01 22:40:00,55.8,52.0,29.81,East,90,0.0,3.0,87,0.00,,,0.00,LWC V2.00 B2112,2013-07-02 05:40:00,
2013-07-01 22:50:00,55.8,52.0,29.81,East,90,0.0,3.0,87,0.00,,,0.00,LWC V2.00 B2112,2013-07-02 05:50:00,
2013-07-01 23:00:00,55.7,51.9,29.82,ESE,112,0.0,2.0,87,0.00,,,0.00,LWC V2.00 B2112,2013-07-02 06:00:00,
2013-07-01 23:10:00,55.7,51.9,29.82,ESE,112,0.0,2.0,87,0.00,,,0.00,LWC V2.00 B2112,2013-07-02 06:10:00,
2013-07-01 23:20:00,55.7,51.9,29.82,ESE,112,0.0,2.0,87,0.00,,,0.00,LWC V2.00 B2112,2013-07-02 06:20:00,
2013-07-01 23:30:00,55.7,51.9,29.82,ESE,112,0.0,2.0,87,0.00,,,0.00,LWC V2.00 B2112,2013-07-02 06:30:00,
2013-07-01 23:40:00,55.7,51.9,29.82,East,90,0.0,5.0,87,0.00,,,0.00,LWC V2.00 B2112,2013-07-02 06:40:00,
2013-07-01 23:50:00,55.7,51.9,29.82,East,90,0.0,5.0,87,0.00,,,0.00,LWC V2.00 B2112,2013-07-02 06:50:00,